Forside
METAR-TAF:

METAR-TAF

Lufthavne :

Marshfield Municipal Airport

Marshfield, Wisconsin, USA

Breddekreds: 44-38-17N, længdekreds: 090-11-15W, højde: 389 m

Aktuelle vejr

Denne rapport blev lavet for 16 minutter siden, kl. 13:54 UTC
Vind 8 kt fra nordøst
Temperatur 1°C
Fugtighed 75%
Tryk 1020 hPa
Nogle få skyer i en højde af 1700 ft

METAR: KMFI 311354Z AUTO 05008KT FEW017 01/M03 A3012 RMK AO2 SLP211 T00111033 PWINO FZRANO $

Tid: 09:10 (14:10 UTC)


TAF: fraværende

Vejrobservationer og prognoser fra mere end 4000 lufthavne (METAR og TAF).

De gule og røde prikker repræsenterer de meteorologiske stationer.

Flyt musen over at se navnet på stationen.

Så klik over at se vejr observationer og prognoser.

At skifte det kort: Klik på de grønne knapper med et sort kors for at zoome ind; på den grønne knap med en bindestreg for at zoome ud; eller på de grønne pile for tilstødende kort.


METAR-TAF: